TimeMDT,TemperatureF,Dew PointF,Humidity,Sea Level PressureIn,VisibilityMPH,Wind Direction,Wind SpeedMPH,Gust SpeedMPH,PrecipitationIn,Events,Conditions,WindDirDegrees,DateUTC
12:53 AM,50.0,25.0,38,29.88,10.0,SSW,10.4,-,N/A,,Clear,200,2012-09-10 06:53:00
1:53 AM,48.9,25.0,39,29.88,10.0,SW,11.5,-,N/A,,Clear,230,2012-09-10 07:53:00
2:53 AM,55.9,25.0,30,29.86,10.0,SW,15.0,-,N/A,,Clear,230,2012-09-10 08:53:00
3:53 AM,53.1,25.0,34,29.86,10.0,West,5.8,-,N/A,,Clear,260,2012-09-10 09:53:00
4:53 AM,48.9,25.0,39,29.89,10.0,SE,5.8,-,N/A,,Clear,130,2012-09-10 10:53:00
5:53 AM,48.9,25.0,39,29.89,10.0,SE,10.4,-,N/A,,Clear,140,2012-09-10 11:53:00
6:53 AM,51.1,26.1,38,29.91,10.0,SSW,11.5,-,N/A,,Clear,200,2012-09-10 12:53:00
7:53 AM,59.0,30.0,33,29.91,10.0,Variable,4.6,-,N/A,,Clear,0,2012-09-10 13:53:00
8:53 AM,68.0,30.0,24,29.88,10.0,SW,15.0,20.7,N/A,,Clear,220,2012-09-10 14:53:00
9:53 AM,73.9,28.9,19,29.86,10.0,SW,17.3,21.9,N/A,,Clear,230,2012-09-10 15:53:00
10:53 AM,78.1,27.0,15,29.85,10.0,SW,13.8,23.0,N/A,,Clear,230,2012-09-10 16:53:00
11:53 AM,80.1,28.0,15,29.84,10.0,SW,11.5,24.2,N/A,,Clear,230,2012-09-10 17:53:00
12:53 PM,80.1,28.0,15,29.83,10.0,WSW,10.4,20.7,N/A,,Mostly Cloudy,250,2012-09-10 18:53:00
1:53 PM,77.0,28.0,17,29.83,10.0,WSW,5.8,-,N/A,,Clear,240,2012-09-10 19:53:00
2:53 PM,79.0,30.0,17,29.77,10.0,SW,6.9,-,N/A,,Partly Cloudy,220,2012-09-10 20:53:00
3:42 PM,80.6,30.2,16,30.11,10.0,West,6.9,20.7,N/A,,Partly Cloudy,260,2012-09-10 21:42:00
3:53 PM,80.1,30.0,16,29.77,10.0,West,11.5,-,N/A,,Clear,270,2012-09-10 21:53:00
4:53 PM,78.1,30.0,17,29.78,10.0,WSW,18.4,-,N/A,,Clear,240,2012-09-10 22:53:00
5:53 PM,75.9,30.0,19,29.79,10.0,SW,11.5,-,N/A,,Mostly Cloudy,230,2012-09-10 23:53:00
6:53 PM,75.0,30.9,20,29.80,10.0,West,15.0,21.9,N/A,,Overcast,280,2012-09-11 00:53:00
7:53 PM,66.9,35.1,31,29.81,10.0,NW,8.1,-,N/A,,Clear,310,2012-09-11 01:53:00
8:53 PM,61.0,35.1,38,29.81,10.0,ESE,3.5,-,N/A,,Clear,120,2012-09-11 02:53:00
9:53 PM,61.0,36.0,39,29.80,10.0,Calm,Calm,-,N/A,,Clear,0,2012-09-11 03:53:00
10:53 PM,57.0,36.0,45,29.80,10.0,SE,4.6,-,N/A,,Clear,140,2012-09-11 04:53:00
11:53 PM,59.0,36.0,42,29.78,10.0,South,6.9,-,N/A,,Clear,170,2012-09-11 05:53:00